Time;durP1;ratioP1;P1;durP2;ratioP2;P2;SDS_P1;SDS_P2;PMS_P1;PMS_P2;Temp;Humidity;BMP_temperature;BMP_pressure;BME280_temperature;BME280_humidity;BME280_pressure;Samples;Min_cycle;Max_cycle;Signal;HPM_P1;HPM_P2
2022/06/15 00:01:48;;;;;;;11.10;5.35;;;13.20;99.90;;;;;;5046984;28;20502;-75
2022/06/15 00:04:14;;;;;;;12.68;4.97;;;13.20;99.90;;;;;;5046644;28;20033;-75
2022/06/15 00:06:41;;;;;;;9.90;5.10;;;13.20;99.90;;;;;;5062035;28;20056;-75
2022/06/15 00:09:08;;;;;;;10.75;5.10;;;13.20;99.90;;;;;;5082199;28;20047;-75
2022/06/15 00:11:36;;;;;;;11.20;5.40;;;13.10;99.90;;;;;;5064520;28;20437;-75
2022/06/15 00:14:17;;;;;;;10.38;5.07;;;13.10;99.90;;;;;;5064487;28;20135;-75
2022/06/15 00:16:42;;;;;;;11.35;5.18;;;13.10;99.90;;;;;;5078806;28;20051;-75
2022/06/15 00:19:09;;;;;;;12.02;5.50;;;13.10;99.90;;;;;;5048362;28;20028;-75
2022/06/15 00:21:35;;;;;;;10.32;5.07;;;13.00;99.90;;;;;;5080023;28;20032;-75
2022/06/15 00:24:00;;;;;;;11.05;5.22;;;13.00;99.90;;;;;;5061730;28;20036;-75
2022/06/15 00:26:27;;;;;;;11.23;5.53;;;13.00;99.90;;;;;;5083074;28;20040;-75
2022/06/15 00:28:53;;;;;;;11.95;5.18;;;12.90;99.90;;;;;;5080901;28;20143;-75
2022/06/15 00:31:19;;;;;;;12.48;6.20;;;12.90;99.90;;;;;;5065936;28;21145;-73
2022/06/15 00:33:45;;;;;;;13.15;5.47;;;12.90;99.90;;;;;;5062699;28;20037;-73
2022/06/15 00:36:14;;;;;;;11.77;5.30;;;12.90;99.90;;;;;;5045269;28;20199;-73
2022/06/15 00:38:43;;;;;;;11.50;5.50;;;12.80;99.90;;;;;;5059095;28;20362;-73
2022/06/15 00:41:12;;;;;;;11.25;5.57;;;12.80;99.90;;;;;;5061876;28;20068;-73
2022/06/15 00:43:41;;;;;;;10.82;5.60;;;12.80;99.90;;;;;;5063850;28;20368;-73
2022/06/15 00:46:32;;;;;;;14.23;6.30;;;12.80;99.90;;;;;;5042392;28;20194;-73
2022/06/15 00:49:08;;;;;;;11.02;5.28;;;12.80;99.90;;;;;;5058759;28;20064;-73
2022/06/15 00:51:35;;;;;;;10.45;4.93;;;12.70;99.90;;;;;;5059185;28;20509;-73
2022/06/15 00:54:02;;;;;;;10.93;5.13;;;12.80;99.90;;;;;;5063227;28;20036;-74
2022/06/15 00:56:30;;;;;;;9.05;4.97;;;12.70;99.90;;;;;;5020713;28;20037;-73
2022/06/15 00:58:59;;;;;;;12.20;4.97;;;12.60;99.90;;;;;;5043368;28;21540;-73
2022/06/15 01:01:25;;;;;;;12.27;5.60;;;12.70;99.90;;;;;;5060078;28;20066;-73
2022/06/15 01:03:52;;;;;;;9.93;5.25;;;12.70;99.90;;;;;;5045415;28;20045;-73
2022/06/15 01:06:49;;;;;;;12.07;5.35;;;12.60;99.90;;;;;;5033269;28;20427;-73
2022/06/15 01:09:24;;;;;;;12.18;5.45;;;12.60;99.90;;;;;;5059358;28;20041;-73
2022/06/15 01:12:20;;;;;;;10.05;5.18;;;12.60;99.90;;;;;;5050843;28;20035;-74
2022/06/15 01:15:08;;;;;;;16.25;5.05;;;12.60;99.90;;;;;;5062830;28;20040;-73
2022/06/15 01:17:33;;;;;;;10.98;4.90;;;12.50;99.90;;;;;;5083261;28;20132;-73
2022/06/15 01:20:13;;;;;;;11.50;5.05;;;12.50;99.90;;;;;;5065505;28;20123;-73
2022/06/15 01:22:41;;;;;;;10.57;4.63;;;12.50;99.90;;;;;;5050537;28;20068;-73
2022/06/15 01:25:22;;;;;;;10.35;5.03;;;12.50;99.90;;;;;;5048024;28;20127;-73
2022/06/15 01:28:05;;;;;;;10.23;4.50;;;12.50;99.90;;;;;;5047494;28;20056;-73
2022/06/15 01:30:31;;;;;;;;;;;12.40;99.90;;;;;;5065366;28;20538;-73
2022/06/15 01:33:02;;;;;;;9.65;4.47;;;12.40;99.90;;;;;;5046079;28;19995;-73
2022/06/15 01:36:00;;;;;;;10.35;4.55;;;12.40;99.90;;;;;;5064742;28;20040;-74
2022/06/15 01:38:59;;;;;;;9.82;4.50;;;12.30;99.90;;;;;;5048068;28;20050;-73
2022/06/15 01:41:34;;;;;;;10.48;4.53;;;12.30;99.90;;;;;;5064615;28;20043;-73
2022/06/15 01:44:14;;;;;;;11.73;4.97;;;12.30;99.90;;;;;;5047144;28;20046;-73
2022/06/15 01:46:45;;;;;;;11.55;4.90;;;12.30;99.90;;;;;;5047338;28;20036;-73
2022/06/15 01:49:29;;;;;;;12.57;4.75;;;12.20;99.90;;;;;;5050170;28;20308;-73
2022/06/15 01:51:57;;;;;;;10.35;4.68;;;12.20;99.90;;;;;;5082946;28;20529;-73
2022/06/15 01:54:33;;;;;;;12.93;5.07;;;12.20;99.90;;;;;;5043954;28;20055;-73
2022/06/15 01:57:02;;;;;;;10.45;4.75;;;12.20;99.90;;;;;;5049755;28;20534;-73
2022/06/15 01:59:35;;;;;;;11.52;4.75;;;12.20;99.90;;;;;;5066149;28;20028;-73
2022/06/15 02:02:10;;;;;;;9.45;4.50;;;12.20;99.90;;;;;;5045628;28;20113;-73
2022/06/15 02:05:17;;;;;;;9.88;4.53;;;12.10;99.90;;;;;;5062399;28;20167;-73
2022/06/15 02:07:59;;;;;;;9.75;4.57;;;12.10;99.90;;;;;;5047414;28;20033;-73
2022/06/15 02:10:40;;;;;;;12.68;5.13;;;12.10;99.90;;;;;;5062683;28;20039;-73
2022/06/15 02:13:21;;;;;;;10.13;4.80;;;12.10;99.90;;;;;;5047842;28;20255;-73
2022/06/15 02:15:54;;;;;;;11.10;4.90;;;12.00;99.90;;;;;;5048593;28;20493;-73
2022/06/15 02:18:22;;;;;;;11.63;4.90;;;12.10;99.90;;;;;;5061152;28;20048;-73
2022/06/15 02:20:57;;;;;;;9.68;4.30;;;12.00;99.90;;;;;;5063447;28;20044;-73
2022/06/15 02:23:26;;;;;;;11.73;5.05;;;12.00;99.90;;;;;;5045670;28;20064;-73
2022/06/15 02:25:53;;;;;;;11.05;4.90;;;12.00;99.90;;;;;;5060343;28;20190;-74
2022/06/15 02:28:23;;;;;;;11.40;4.78;;;12.00;99.90;;;;;;5045913;28;20777;-73
2022/06/15 02:30:50;;;;;;;11.27;4.80;;;12.00;99.90;;;;;;5064553;28;20702;-73
2022/06/15 02:33:27;;;;;;;10.05;4.50;;;11.90;99.90;;;;;;5049050;28;20557;-73
2022/06/15 02:35:53;;;;;;;10.95;4.53;;;12.00;99.90;;;;;;5048704;28;20503;-73
2022/06/15 02:38:19;;;;;;;10.88;4.55;;;11.90;99.90;;;;;;5046854;28;20123;-73
2022/06/15 02:40:45;;;;;;;9.75;4.22;;;11.90;99.90;;;;;;5047082;28;20444;-73
2022/06/15 02:43:12;;;;;;;10.13;4.90;;;11.90;99.90;;;;;;5046910;28;20197;-73
2022/06/15 02:45:40;;;;;;;10.40;4.53;;;11.90;99.90;;;;;;5064747;28;20124;-73
2022/06/15 02:48:08;;;;;;;10.90;5.00;;;11.90;99.90;;;;;;5044468;28;20040;-73
2022/06/15 02:50:40;;;;;;;10.13;4.53;;;11.90;99.90;;;;;;5062196;28;20564;-73
2022/06/15 02:53:17;;;;;;;9.50;4.18;;;11.90;99.90;;;;;;5045667;28;20786;-73
2022/06/15 02:55:44;;;;;;;10.40;4.85;;;11.80;99.90;;;;;;5064956;28;20617;-73
2022/06/15 02:58:34;;;;;;;14.50;4.97;;;11.90;99.90;;;;;;5025199;28;20044;-73
2022/06/15 03:01:01;;;;;;;10.57;4.95;;;11.90;99.90;;;;;;5048829;28;20036;-73
2022/06/15 03:03:28;;;;;;;11.27;4.65;;;11.80;99.90;;;;;;5045081;28;20039;-73
2022/06/15 03:05:54;;;;;;;10.75;4.45;;;11.80;99.90;;;;;;5063528;28;20051;-73
2022/06/15 03:08:20;;;;;;;10.70;4.72;;;11.90;99.90;;;;;;5044209;28;20041;-73
2022/06/15 03:10:52;;;;;;;10.63;4.82;;;11.80;99.90;;;;;;5062854;28;20457;-73
2022/06/15 03:13:18;;;;;;;11.05;4.93;;;11.80;99.90;;;;;;5060356;28;20040;-73
2022/06/15 03:15:44;;;;;;;12.02;5.00;;;11.80;99.90;;;;;;5067394;28;20177;-73
2022/06/15 03:18:10;;;;;;;10.35;4.70;;;11.80;99.90;;;;;;5029352;28;20581;-73
2022/06/15 03:20:36;;;;;;;10.40;4.57;;;11.80;99.90;;;;;;5064175;28;20029;-73
2022/06/15 03:23:02;;;;;;;9.50;4.72;;;11.90;99.90;;;;;;5061103;28;20040;-73
2022/06/15 03:25:27;;;;;;;14.23;5.10;;;11.90;99.90;;;;;;5042507;28;20123;-73
2022/06/15 03:27:53;;;;;;;10.52;4.97;;;11.80;99.90;;;;;;5028099;28;20115;-73
2022/06/15 03:30:19;;;;;;;10.25;4.57;;;11.90;99.90;;;;;;5029408;28;20068;-73
2022/06/15 03:32:46;;;;;;;11.65;5.10;;;11.90;99.90;;;;;;5047605;28;20040;-74
2022/06/15 03:35:12;;;;;;;10.15;4.78;;;12.00;99.90;;;;;;5046373;28;20068;-74
2022/06/15 03:37:38;;;;;;;10.18;4.68;;;12.00;99.90;;;;;;5061076;28;20563;-74
2022/06/15 03:40:10;;;;;;;11.07;5.13;;;12.00;99.90;;;;;;5024976;28;20036;-74
2022/06/15 03:42:36;;;;;;;9.68;4.65;;;12.10;99.90;;;;;;5046061;28;20040;-74
2022/06/15 03:45:03;;;;;;;11.18;4.90;;;12.10;99.90;;;;;;5064888;28;20036;-74
2022/06/15 03:47:29;;;;;;;9.88;4.88;;;12.20;99.90;;;;;;5063526;28;20131;-74
2022/06/15 03:49:55;;;;;;;12.40;5.25;;;12.20;99.90;;;;;;5045224;28;20119;-74
2022/06/15 03:52:26;;;;;;;12.32;4.95;;;12.20;99.90;;;;;;5045827;28;20105;-74
2022/06/15 03:54:52;;;;;;;11.85;4.72;;;12.30;99.90;;;;;;5048175;28;20048;-74
2022/06/15 03:57:20;;;;;;;12.05;5.10;;;12.30;99.90;;;;;;5060853;28;20119;-74
2022/06/15 03:59:47;;;;;;;9.88;4.97;;;12.40;99.90;;;;;;5062507;28;20094;-74
2022/06/15 04:02:12;;;;;;;12.10;5.50;;;12.40;99.90;;;;;;5058263;28;20041;-74
2022/06/15 04:04:38;;;;;;;10.90;4.80;;;12.40;99.90;;;;;;5060020;28;20597;-74
2022/06/15 04:08:34;;;;;;;10.30;4.70;;;12.50;99.90;;;;;;5045972;28;20511;-74
2022/06/15 04:09:51;;;;;;;13.20;5.20;;;12.50;99.90;;;;;;5060719;28;20668;-74
2022/06/15 04:12:17;;;;;;;9.88;4.90;;;12.50;99.90;;;;;;5039963;28;20136;-74
2022/06/15 04:14:42;;;;;;;12.77;5.22;;;12.50;99.90;;;;;;5045451;28;20094;-74
2022/06/15 04:17:09;;;;;;;12.05;5.28;;;12.60;99.90;;;;;;5064927;28;20498;-74
2022/06/15 04:19:35;;;;;;;10.73;4.97;;;12.60;99.90;;;;;;5046936;28;20379;-74
2022/06/15 04:22:01;;;;;;;11.40;4.80;;;12.70;99.90;;;;;;5043724;28;20036;-74
2022/06/15 04:24:29;;;;;;;11.07;4.97;;;12.70;99.90;;;;;;5060228;28;20037;-74
2022/06/15 04:26:55;;;;;;;11.15;5.40;;;12.80;99.90;;;;;;5063699;28;20051;-74
2022/06/15 04:29:21;;;;;;;11.50;5.30;;;12.80;99.90;;;;;;5045511;28;20035;-74
2022/06/15 04:31:47;;;;;;;12.32;4.70;;;12.80;99.90;;;;;;5065029;28;20048;-74
2022/06/15 04:34:14;;;;;;;10.88;5.03;;;12.90;99.90;;;;;;5061284;28;20200;-74
2022/06/15 04:36:42;;;;;;;9.70;4.80;;;13.00;99.90;;;;;;5044268;28;20059;-74
2022/06/15 04:39:10;;;;;;;10.27;5.00;;;13.00;99.90;;;;;;5047440;28;20089;-74
2022/06/15 04:41:37;;;;;;;11.60;5.03;;;13.00;99.90;;;;;;5066601;28;20059;-74
2022/06/15 04:44:05;;;;;;;10.75;4.90;;;13.10;99.90;;;;;;5042118;28;20084;-74
2022/06/15 04:46:31;;;;;;;11.93;4.70;;;13.20;99.90;;;;;;5065515;28;20485;-74
2022/06/15 04:48:57;;;;;;;10.90;4.88;;;13.20;99.90;;;;;;5064712;28;20077;-74
2022/06/15 04:51:25;;;;;;;13.18;4.78;;;13.30;99.90;;;;;;5063709;28;20079;-74
2022/06/15 04:53:53;;;;;;;10.18;4.75;;;13.30;99.90;;;;;;5030178;28;20390;-74
2022/06/15 04:56:20;;;;;;;11.25;5.07;;;13.40;99.90;;;;;;5045281;28;20041;-74
2022/06/15 04:58:46;;;;;;;11.35;4.65;;;13.40;99.90;;;;;;5064295;28;20048;-74
2022/06/15 05:01:13;;;;;;;10.38;4.63;;;13.50;99.90;;;;;;5045593;28;20502;-74
2022/06/15 05:03:40;;;;;;;10.68;4.60;;;13.50;99.90;;;;;;5063936;28;20048;-74
2022/06/15 05:06:28;;;;;;;11.15;4.40;;;13.50;99.90;;;;;;5045322;28;20052;-73
2022/06/15 05:08:53;;;;;;;9.52;4.72;;;13.60;99.90;;;;;;5065610;28;20120;-73
2022/06/15 05:11:19;;;;;;;9.43;4.45;;;13.60;99.90;;;;;;5047638;28;21711;-74
2022/06/15 05:13:45;;;;;;;10.07;4.53;;;13.70;99.90;;;;;;5069569;28;20094;-74
2022/06/15 05:16:11;;;;;;;10.38;4.38;;;13.70;99.90;;;;;;5030061;28;20116;-74
2022/06/15 05:18:37;;;;;;;10.70;4.70;;;13.70;99.90;;;;;;5046334;28;20547;-74
2022/06/15 05:21:03;;;;;;;9.43;4.65;;;13.70;99.90;;;;;;5066775;28;20067;-74
2022/06/15 05:23:29;;;;;;;10.48;4.60;;;13.70;99.90;;;;;;5051137;28;20148;-74
2022/06/15 05:25:54;;;;;;;11.80;4.82;;;13.80;99.90;;;;;;5048532;28;20525;-73
2022/06/15 05:28:20;;;;;;;11.23;4.78;;;13.80;99.90;;;;;;5046349;28;20042;-74
2022/06/15 05:30:46;;;;;;;9.90;4.63;;;13.80;99.90;;;;;;5048788;28;20068;-74
2022/06/15 05:33:11;;;;;;;11.15;4.80;;;13.90;99.90;;;;;;5045966;28;20033;-74
2022/06/15 05:35:37;;;;;;;10.30;4.72;;;14.00;99.90;;;;;;5042527;28;20066;-74
2022/06/15 05:38:04;;;;;;;9.73;4.78;;;14.00;99.90;;;;;;5067672;28;20083;-74
2022/06/15 05:40:29;;;;;;;10.60;4.47;;;14.10;99.90;;;;;;5067782;28;20470;-74
2022/06/15 05:42:55;;;;;;;11.88;4.85;;;14.20;99.90;;;;;;5048894;28;20072;-74
2022/06/15 05:45:21;;;;;;;9.88;4.43;;;14.30;99.90;;;;;;5051324;28;20479;-74
2022/06/15 05:47:46;;;;;;;10.60;4.35;;;14.30;99.90;;;;;;5052032;28;20050;-74
2022/06/15 05:50:13;;;;;;;9.63;4.78;;;14.40;99.90;;;;;;5050963;28;20048;-74
2022/06/15 05:52:39;;;;;;;10.98;4.60;;;14.60;99.90;;;;;;5051651;28;20033;-74
2022/06/15 05:55:06;;;;;;;10.73;4.25;;;14.80;99.90;;;;;;5025384;28;20048;-74
2022/06/15 05:57:31;;;;;;;11.10;4.32;;;15.00;99.90;;;;;;5050459;28;20041;-75
2022/06/15 05:59:58;;;;;;;9.80;4.00;;;15.20;99.90;;;;;;5033523;28;20033;-74
2022/06/15 06:02:26;;;;;;;10.15;4.10;;;15.40;99.90;;;;;;5051968;28;20028;-74
2022/06/15 06:04:52;;;;;;;9.90;4.15;;;15.60;99.90;;;;;;5049433;28;20059;-74
2022/06/15 06:07:19;;;;;;;10.23;3.90;;;15.70;99.90;;;;;;5066831;28;20343;-74
2022/06/15 06:09:45;;;;;;;13.27;4.30;;;15.80;99.90;;;;;;5043282;28;20036;-74
2022/06/15 06:12:11;;;;;;;9.65;3.78;;;16.00;99.90;;;;;;5065936;28;20048;-74
2022/06/15 06:14:40;;;;;;;8.52;4.22;;;16.10;99.90;;;;;;5067166;28;20055;-74
2022/06/15 06:17:07;;;;;;;9.25;3.97;;;16.20;99.90;;;;;;5044470;28;20164;-74
2022/06/15 06:19:32;;;;;;;9.75;4.13;;;16.30;99.90;;;;;;5062605;28;20040;-75
2022/06/15 06:21:58;;;;;;;9.38;3.90;;;16.40;99.90;;;;;;5063273;28;20056;-74
2022/06/15 06:24:24;;;;;;;10.75;4.13;;;16.40;99.90;;;;;;5064742;28;20052;-75
2022/06/15 06:26:57;;;;;;;9.85;4.05;;;16.50;99.90;;;;;;5033439;28;20459;-75
2022/06/15 06:29:23;;;;;;;9.98;3.75;;;16.60;99.90;;;;;;5064909;28;20037;-75
2022/06/15 06:31:49;;;;;;;8.35;3.60;;;16.70;99.90;;;;;;5011673;28;20040;-74
2022/06/15 06:34:14;;;;;;;10.52;4.00;;;16.80;99.90;;;;;;5049123;28;20048;-75
2022/06/15 06:36:44;;;;;;;10.35;3.45;;;16.80;99.90;;;;;;5048001;28;20037;-74
2022/06/15 06:39:14;;;;;;;9.18;3.40;;;16.90;99.90;;;;;;5065412;28;20487;-74
2022/06/15 06:41:41;;;;;;;9.18;3.00;;;17.00;99.90;;;;;;5062966;28;20482;-74
2022/06/15 06:44:07;;;;;;;9.40;3.05;;;17.20;99.90;;;;;;5049605;28;20037;-75
2022/06/15 06:46:34;;;;;;;9.02;3.08;;;17.30;99.90;;;;;;5045170;28;20123;-75
2022/06/15 06:49:01;;;;;;;8.85;2.90;;;17.60;99.90;;;;;;5049797;28;20032;-75
2022/06/15 06:51:27;;;;;;;9.63;3.08;;;17.70;99.90;;;;;;5048965;28;20415;-74
2022/06/15 06:53:53;;;;;;;7.97;2.70;;;17.80;99.90;;;;;;5031330;28;20111;-74
2022/06/15 06:56:19;;;;;;;9.90;2.70;;;17.90;99.90;;;;;;5044642;28;20189;-74
2022/06/15 06:58:45;;;;;;;7.43;2.50;;;18.10;99.90;;;;;;5065793;28;20052;-75
2022/06/15 07:01:10;;;;;;;7.95;2.50;;;18.20;99.90;;;;;;5059892;28;20161;-75
2022/06/15 07:03:36;;;;;;;9.90;2.30;;;18.50;99.90;;;;;;5065264;28;20123;-75
2022/06/15 07:06:07;;;;;;;7.65;2.40;;;18.70;99.90;;;;;;5049567;28;20239;-75
2022/06/15 07:08:34;;;;;;;8.25;2.25;;;18.80;99.90;;;;;;5065226;28;20040;-75
2022/06/15 07:11:00;;;;;;;8.30;2.63;;;18.80;99.90;;;;;;5044595;28;20041;-75
2022/06/15 07:13:26;;;;;;;7.65;2.20;;;18.80;99.90;;;;;;5046466;28;20486;-75
2022/06/15 07:15:52;;;;;;;9.10;2.40;;;18.70;99.90;;;;;;5032667;28;20048;-75
2022/06/15 07:18:18;;;;;;;7.88;2.17;;;18.70;99.90;;;;;;5065124;28;20055;-75
2022/06/15 07:20:44;;;;;;;8.93;2.70;;;18.70;99.90;;;;;;5041583;28;20036;-75
2022/06/15 07:23:10;;;;;;;7.78;2.53;;;18.60;99.90;;;;;;5035524;28;20429;-75
2022/06/15 07:25:36;;;;;;;8.88;2.30;;;18.70;99.90;;;;;;5032060;28;20120;-75
2022/06/15 07:28:03;;;;;;;8.23;2.40;;;18.60;99.90;;;;;;5059578;28;20043;-75
2022/06/15 07:30:29;;;;;;;8.00;2.70;;;18.60;99.90;;;;;;5061417;28;20115;-75
2022/06/15 07:32:55;;;;;;;8.85;2.90;;;18.60;99.90;;;;;;5063856;28;20386;-75
2022/06/15 07:35:29;;;;;;;9.32;2.00;;;18.50;99.90;;;;;;5066592;28;20036;-75
2022/06/15 07:37:55;;;;;;;7.95;2.28;;;18.60;99.90;;;;;;5061522;28;20490;-75
2022/06/15 07:40:23;;;;;;;7.22;2.08;;;18.70;99.90;;;;;;5045648;28;20033;-75
2022/06/15 07:42:51;;;;;;;10.27;2.55;;;18.70;99.90;;;;;;5044117;28;20517;-75
2022/06/15 07:45:18;;;;;;;7.47;2.20;;;18.70;99.90;;;;;;5062836;28;20033;-74
2022/06/15 07:50:43;;;;;;;8.30;2.53;;;18.80;99.90;;;;;;5006493;28;20037;-74
2022/06/15 07:53:12;;;;;;;8.35;2.30;;;18.90;99.90;;;;;;5030407;28;20033;-75
2022/06/15 07:55:41;;;;;;;7.75;2.63;;;19.00;99.90;;;;;;5058710;28;20033;-75
2022/06/15 07:58:09;;;;;;;7.90;2.38;;;19.10;99.90;;;;;;5064181;28;20047;-75
2022/06/15 08:00:39;;;;;;;10.05;3.20;;;19.20;99.90;;;;;;5032176;28;20124;-75
2022/06/15 08:03:06;;;;;;;10.00;3.30;;;19.20;99.90;;;;;;5046632;28;20119;-75
2022/06/15 08:05:36;;;;;;;8.60;3.05;;;19.10;99.90;;;;;;5064873;28;20049;-75
2022/06/15 08:08:03;;;;;;;8.07;3.00;;;19.10;99.90;;;;;;5046230;28;20501;-75
2022/06/15 08:10:30;;;;;;;8.77;3.33;;;19.10;99.90;;;;;;5063327;28;20119;-75
2022/06/15 08:12:55;;;;;;;9.65;3.20;;;19.20;99.90;;;;;;5064688;28;20063;-75
2022/06/15 08:15:22;;;;;;;9.25;3.00;;;19.20;99.90;;;;;;5046630;28;20033;-75
2022/06/15 08:17:52;;;;;;;8.18;2.75;;;19.20;99.90;;;;;;5047333;28;21564;-75
2022/06/15 08:20:22;;;;;;;7.38;2.63;;;19.10;99.90;;;;;;5044663;28;20139;-75
2022/06/15 08:22:51;;;;;;;9.18;3.20;;;19.10;99.90;;;;;;5065948;28;20055;-75
2022/06/15 08:25:22;;;;;;;10.82;2.65;;;19.00;99.90;;;;;;5044151;28;20041;-75
2022/06/15 08:27:48;;;;;;;8.32;2.35;;;19.00;99.90;;;;;;5046742;28;20060;-75
2022/06/15 08:30:15;;;;;;;8.43;2.83;;;18.90;99.90;;;;;;5046361;28;20128;-75
2022/06/15 08:32:41;;;;;;;9.02;2.38;;;18.90;99.90;;;;;;5064588;28;20562;-75
2022/06/15 08:35:08;;;;;;;9.35;2.78;;;18.90;99.90;;;;;;5063423;28;20041;-75
2022/06/15 08:37:34;;;;;;;8.32;2.95;;;18.90;99.90;;;;;;5061383;28;20047;-75
2022/06/15 08:39:59;;;;;;;6.93;2.30;;;19.00;99.90;;;;;;5047877;28;20036;-75
2022/06/15 08:42:50;;;;;;;9.82;2.25;;;19.00;99.90;;;;;;5064090;28;20556;-74
2022/06/15 08:45:16;;;;;;;6.47;2.13;;;19.20;99.90;;;;;;5058838;28;20064;-75
2022/06/15 08:48:18;;;;;;;8.38;2.33;;;19.10;99.90;;;;;;5064152;28;20406;-75
2022/06/15 08:50:58;;;;;;;6.10;2.00;;;19.10;99.90;;;;;;5063007;28;20036;-75
2022/06/15 08:53:32;;;;;;;7.43;2.20;;;19.00;99.90;;;;;;5049846;28;20278;-75
2022/06/15 08:56:08;;;;;;;8.52;1.95;;;19.00;99.90;;;;;;5061916;28;20052;-75
2022/06/15 08:58:54;;;;;;;7.53;1.85;;;18.90;99.90;;;;;;5045209;28;20044;-75
2022/06/15 09:01:32;;;;;;;8.98;2.28;;;18.90;99.90;;;;;;5063915;28;20086;-75
2022/06/15 09:03:58;;;;;;;6.97;2.05;;;19.00;99.90;;;;;;5042308;28;20148;-75
2022/06/15 09:06:40;;;;;;;8.32;2.15;;;19.30;99.90;;;;;;5063693;28;20071;-75
2022/06/15 09:09:39;;;;;;;6.22;2.03;;;19.50;99.90;;;;;;5043270;28;20098;-75
2022/06/15 09:15:26;;;;;;;7.60;2.33;;;19.90;99.90;;;;;;5064155;28;20040;-74
2022/06/15 09:17:55;;;;;;;7.70;2.05;;;20.20;99.90;;;;;;5065384;28;20040;-75
2022/06/15 09:20:35;;;;;;;7.82;2.22;;;20.40;99.90;;;;;;5047374;28;20063;-75
2022/06/15 09:23:08;;;;;;;8.00;2.08;;;20.40;99.90;;;;;;5053982;28;20051;-75
2022/06/15 09:25:41;;;;;;;8.70;2.47;;;20.60;99.90;;;;;;5050298;28;20384;-75
2022/06/15 09:28:06;;;;;;;9.57;2.03;;;20.70;99.90;;;;;;5066562;28;20032;-75
2022/06/15 09:30:37;;;;;;;6.43;2.00;;;20.60;99.90;;;;;;5050110;28;20794;-75
2022/06/15 09:33:28;;;;;;;7.18;2.08;;;20.80;99.90;;;;;;5050484;28;20353;-75
2022/06/15 09:36:05;;;;;;;6.93;2.05;;;20.90;99.90;;;;;;5065572;28;20455;-75
2022/06/15 09:38:32;;;;;;;7.07;1.92;;;21.10;99.90;;;;;;5068339;28;20037;-75
2022/06/15 09:41:15;;;;;;;8.55;2.13;;;21.20;99.90;;;;;;5049680;28;20036;-75
2022/06/15 09:43:43;;;;;;;8.52;2.20;;;21.20;99.90;;;;;;5064420;28;20059;-75
2022/06/15 09:46:29;;;;;;;5.65;1.63;;;21.30;99.90;;;;;;5066013;28;20047;-75
2022/06/15 09:49:11;;;;;;;6.72;2.00;;;21.40;99.90;;;;;;5057720;28;20052;-75
2022/06/15 09:52:04;;;;;;;6.50;2.00;;;21.40;99.90;;;;;;5052015;28;20365;-75
2022/06/15 09:54:48;;;;;;;5.68;1.80;;;21.40;99.90;;;;;;5066128;28;20036;-75
2022/06/15 09:57:15;;;;;;;7.80;2.00;;;21.50;99.90;;;;;;5071750;28;20040;-75
2022/06/15 09:59:41;;;;;;;5.78;2.00;;;21.50;99.90;;;;;;5031960;28;20064;-75
2022/06/15 10:02:23;;;;;;;7.47;2.00;;;21.30;99.90;;;;;;5062459;28;20075;-75
2022/06/15 10:04:49;;;;;;;6.90;2.17;;;21.00;99.90;;;;;;5060991;28;20060;-75
2022/06/15 10:07:40;;;;;;;6.90;2.10;;;20.90;99.90;;;;;;5046575;28;20041;-75
2022/06/15 10:10:22;;;;;;;7.45;2.20;;;21.00;99.90;;;;;;5041855;28;20436;-76
2022/06/15 10:13:02;;;;;;;6.63;2.00;;;21.40;99.90;;;;;;5051691;28;20121;-75
2022/06/15 10:15:40;;;;;;;7.72;1.83;;;21.10;99.90;;;;;;5067636;28;20048;-75
2022/06/15 10:18:37;;;;;;;8.70;2.20;;;21.30;99.90;;;;;;5072285;28;20516;-76
2022/06/15 10:21:17;;;;;;;8.95;2.10;;;21.60;99.90;;;;;;5054868;28;20044;-75
2022/06/15 10:23:55;;;;;;;5.28;1.83;;;21.70;99.90;;;;;;5066858;28;20208;-75
2022/06/15 10:26:32;;;;;;;6.93;2.03;;;21.80;99.90;;;;;;5066146;28;20220;-76
2022/06/15 10:29:26;;;;;;;6.57;1.98;;;22.00;99.90;;;;;;5065352;28;20033;-76
2022/06/15 10:32:05;;;;;;;7.60;2.17;;;22.10;99.90;;;;;;5064544;28;20049;-75
2022/06/15 10:34:33;;;;;;;6.90;2.28;;;22.00;99.90;;;;;;5049667;28;20135;-76
2022/06/15 10:37:06;;;;;;;7.32;2.10;;;21.60;99.90;;;;;;5046148;28;20048;-76
2022/06/15 10:39:34;;;;;;;;;;;21.30;99.90;;;;;;5049007;28;20032;-76
2022/06/15 10:42:05;;;;;;;7.32;1.92;;;21.00;99.90;;;;;;5065176;28;19921;-76
2022/06/15 10:44:40;;;;;;;5.47;2.00;;;20.80;99.90;;;;;;5065259;28;20039;-75
2022/06/15 10:47:20;;;;;;;7.88;2.30;;;20.90;99.90;;;;;;5066182;28;20470;-76
2022/06/15 10:50:01;;;;;;;7.38;2.20;;;21.00;99.90;;;;;;5047103;28;20108;-76
2022/06/15 10:52:36;;;;;;;7.70;2.22;;;21.30;99.90;;;;;;5064142;28;20044;-75
2022/06/15 11:03:41;;;;;;;6.75;2.10;;;21.90;99.90;;;;;;5064867;28;20454;-75
2022/06/15 11:06:08;;;;;;;4.97;1.80;;;22.10;99.90;;;;;;5045431;28;20060;-75
2022/06/15 11:08:40;;;;;;;6.22;1.98;;;22.30;99.90;;;;;;5030296;28;20114;-75
2022/06/15 11:11:12;;;;;;;5.97;2.03;;;22.40;99.90;;;;;;5067339;28;20040;-75
2022/06/15 11:13:42;;;;;;;8.57;2.28;;;22.40;99.90;;;;;;5050068;28;20499;-75
2022/06/15 11:19:08;;;;;;;7.88;2.25;;;22.50;99.90;;;;;;5063900;28;20036;-75
2022/06/15 11:21:40;;;;;;;5.93;2.00;;;22.30;99.90;;;;;;5060363;28;20483;-75
2022/06/15 11:24:12;;;;;;;7.87;2.20;;;22.10;99.90;;;;;;5045109;28;20047;-75
2022/06/15 11:27:12;;;;;;;7.50;2.13;;;21.80;99.90;;;;;;5065864;28;20568;-75
2022/06/15 11:29:55;;;;;;;7.40;2.10;;;21.70;99.90;;;;;;5049372;28;20032;-75
2022/06/15 11:33:00;;;;;;;8.20;2.25;;;21.80;99.90;;;;;;5062769;28;20072;-75
2022/06/15 11:35:37;;;;;;;6.20;1.90;;;22.10;99.90;;;;;;5061806;28;20036;-75
2022/06/15 11:38:16;;;;;;;8.10;2.30;;;22.30;99.90;;;;;;5045776;28;20044;-75
2022/06/15 11:40:48;;;;;;;6.45;2.17;;;22.50;99.90;;;;;;5062635;28;20412;-75
2022/06/15 11:43:19;;;;;;;8.10;2.30;;;22.50;99.90;;;;;;5048980;28;20119;-75
2022/06/15 11:46:13;;;;;;;5.80;1.90;;;22.50;99.90;;;;;;5046537;28;20064;-75
2022/06/15 11:48:50;;;;;;;8.57;2.30;;;22.40;99.90;;;;;;5049326;28;20099;-75
2022/06/15 11:51:57;;;;;;;6.63;2.20;;;22.20;99.90;;;;;;5044586;28;20463;-76
2022/06/15 11:54:41;;;;;;;7.82;2.17;;;22.20;99.90;;;;;;5044765;28;20049;-75
2022/06/15 11:57:28;;;;;;;8.00;2.47;;;22.20;99.90;;;;;;5048818;28;20125;-76
2022/06/15 12:00:10;;;;;;;7.38;2.40;;;22.10;99.90;;;;;;5045916;28;20044;-76
2022/06/15 12:02:36;;;;;;;;;;;21.80;99.90;;;;;;5071555;28;20281;-76
2022/06/15 12:05:08;;;;;;;7.38;2.22;;;21.60;99.90;;;;;;5047027;28;20150;-75
2022/06/15 12:08:07;;;;;;;7.97;2.63;;;21.50;99.90;;;;;;5065071;28;20114;-76
2022/06/15 12:10:49;;;;;;;9.93;2.63;;;21.40;99.90;;;;;;5064556;28;20048;-75
2022/06/15 12:13:17;;;;;;;8.98;2.45;;;21.30;99.90;;;;;;5065795;28;20036;-76
2022/06/15 12:15:50;;;;;;;10.45;2.70;;;21.20;99.90;;;;;;5046785;28;20153;-75
2022/06/15 12:18:30;;;;;;;8.25;2.42;;;21.20;99.90;;;;;;5059803;28;20044;-75
2022/06/15 12:21:06;;;;;;;11.82;2.60;;;21.20;99.90;;;;;;5061867;28;20051;-76
2022/06/15 12:23:44;;;;;;;7.93;2.30;;;21.20;99.90;;;;;;5057786;28;20075;-75
2022/06/15 12:26:36;;;;;;;7.50;2.42;;;21.30;99.90;;;;;;5064844;28;20494;-75
2022/06/15 12:29:25;;;;;;;9.57;2.53;;;21.30;99.90;;;;;;5063444;28;20055;-75
2022/06/15 12:35:19;;;;;;;6.88;2.50;;;21.20;99.90;;;;;;5057845;28;20048;-75
2022/06/15 12:38:13;;;;;;;8.95;2.40;;;21.30;99.90;;;;;;5063992;28;20109;-75
2022/06/15 12:40:50;;;;;;;6.43;2.50;;;21.40;99.90;;;;;;5046588;28;20084;-75
2022/06/15 12:43:40;;;;;;;6.93;2.47;;;21.80;99.90;;;;;;5061008;28;20090;-75
2022/06/15 12:46:07;;;;;;;8.75;2.60;;;22.10;99.90;;;;;;5062561;28;20502;-75
2022/06/15 12:48:52;;;;;;;8.13;2.83;;;22.10;99.90;;;;;;5062672;28;20047;-75
2022/06/15 12:51:49;;;;;;;7.28;2.60;;;22.10;99.90;;;;;;5044188;28;20033;-76
2022/06/15 12:54:27;;;;;;;7.80;2.58;;;22.00;99.90;;;;;;5046199;28;20032;-76
2022/06/15 12:57:21;;;;;;;6.82;2.40;;;22.00;99.90;;;;;;5045606;28;20556;-75
2022/06/15 13:00:12;;;;;;;7.60;2.35;;;22.10;99.90;;;;;;5049074;28;20044;-76
2022/06/15 13:02:45;;;;;;;9.13;2.97;;;22.20;99.90;;;;;;5043791;28;20036;-76
2022/06/15 13:05:25;;;;;;;7.90;2.35;;;21.90;99.90;;;;;;5066254;28;20055;-76
2022/06/15 13:08:22;;;;;;;7.45;2.40;;;22.00;99.90;;;;;;5063297;28;20060;-75
2022/06/15 13:10:54;;;;;;;7.13;2.45;;;22.20;99.90;;;;;;5067516;28;20052;-75
2022/06/15 13:13:30;;;;;;;7.30;2.42;;;22.00;99.90;;;;;;5064003;28;20501;-75
2022/06/15 13:16:13;;;;;;;6.85;2.42;;;21.90;99.90;;;;;;5052031;28;20116;-75
2022/06/15 13:18:49;;;;;;;7.22;2.25;;;21.90;99.90;;;;;;5069081;28;20078;-75
2022/06/15 13:21:27;;;;;;;8.68;2.50;;;21.70;99.90;;;;;;5066046;28;20101;-75
2022/06/15 13:24:04;;;;;;;6.53;1.98;;;21.60;99.90;;;;;;5033733;28;20139;-75
2022/06/15 13:26:39;;;;;;;9.50;2.50;;;21.70;99.90;;;;;;5047204;28;20071;-75
2022/06/15 13:29:11;;;;;;;9.77;2.30;;;21.90;99.90;;;;;;5058119;28;20522;-76
2022/06/15 13:31:46;;;;;;;5.97;1.90;;;22.20;99.90;;;;;;5048345;28;20055;-75